BCN weather

Barcelona International Airport
Barcelona, Catalonia, Spain

Public forecast

Using degrees Celsius for public forecast. Weather courtesy of forecast.io.

Current aviation weather report (METAR) for Barcelona International Airport

Retrieved 2019/10/21 21:30 UTC (27 minutes ago):

LEBL 212130Z 02006KT 9999 FEW010 16/14 Q1019 NOSIG

Aviation forecast (TAF) for Barcelona International Airport

Retrieved 2019/10/21 18:27 UTC (3 hours ago):

TAF LEBL 211700Z 2118/2218 35007KT 9999 FEW015 TX22/2212Z TN15/2206Z TEMPO 2118/2120 16007KT BECMG 2203/2206 VRB22G35KT 2000 TSRA SCT035CB BKN040 TEMPO 2203/2218 04015KT 9999 FEW015 PROB40 TEMPO 2208/2218 07025G40KT